Time;durP1;ratioP1;P1;durP2;ratioP2;P2;SDS_P1;SDS_P2;PMS_P1;PMS_P2;Temp;Humidity;BMP_temperature;BMP_pressure;BME280_temperature;BME280_humidity;BME280_pressure;Samples;Min_cycle;Max_cycle;Signal;HPM_P1;HPM_P2
2023/07/29 00:00:46;;;;;;;4.75;4.22;;;19.30;99.90;;;;;;5016495;28;20036;-67
2023/07/29 00:03:12;;;;;;;4.72;4.28;;;19.20;99.90;;;;;;5017647;28;20025;-68
2023/07/29 00:05:38;;;;;;;5.07;4.50;;;19.20;99.90;;;;;;4988622;28;20087;-68
2023/07/29 00:08:04;;;;;;;4.78;4.30;;;19.20;99.90;;;;;;5011994;28;20105;-68
2023/07/29 00:10:37;;;;;;;5.15;4.65;;;19.20;99.90;;;;;;5009099;28;20690;-68
2023/07/29 00:13:03;;;;;;;5.50;4.15;;;19.20;99.90;;;;;;5011605;28;20068;-68
2023/07/29 00:15:29;;;;;;;5.57;4.30;;;19.20;99.90;;;;;;5014047;28;20100;-68
2023/07/29 00:17:55;;;;;;;4.53;4.10;;;19.20;99.90;;;;;;5015531;28;20038;-67
2023/07/29 00:20:21;;;;;;;4.40;4.00;;;19.10;99.90;;;;;;5013986;28;20044;-67
2023/07/29 00:22:49;;;;;;;4.18;3.67;;;19.20;99.90;;;;;;5013766;28;20033;-68
2023/07/29 00:25:15;;;;;;;5.22;4.50;;;19.10;99.90;;;;;;5008855;28;20112;-68
2023/07/29 00:27:41;;;;;;;5.20;4.13;;;19.10;99.90;;;;;;5022585;28;20029;-67
2023/07/29 00:30:08;;;;;;;5.53;3.85;;;19.10;99.90;;;;;;5017481;28;20041;-68
2023/07/29 00:32:36;;;;;;;6.75;4.50;;;19.10;99.90;;;;;;5018960;28;20057;-67
2023/07/29 00:35:02;;;;;;;4.97;4.57;;;19.10;99.90;;;;;;4992531;28;20025;-67
2023/07/29 00:37:28;;;;;;;4.85;4.10;;;19.00;99.90;;;;;;5010976;28;20725;-68
2023/07/29 00:39:54;;;;;;;4.50;4.10;;;19.00;99.90;;;;;;5015907;28;20041;-67
2023/07/29 00:42:20;;;;;;;5.68;3.90;;;19.00;99.90;;;;;;4997138;28;20034;-68
2023/07/29 00:44:47;;;;;;;4.68;3.92;;;19.00;99.90;;;;;;5009061;28;20022;-68
2023/07/29 00:47:15;;;;;;;7.10;4.20;;;19.00;99.90;;;;;;5000752;28;20045;-68
2023/07/29 00:49:43;;;;;;;5.97;4.35;;;19.00;99.90;;;;;;5021823;28;20025;-67
2023/07/29 00:52:11;;;;;;;8.52;4.80;;;19.00;99.90;;;;;;5015299;28;20405;-67
2023/07/29 00:54:42;;;;;;;4.93;4.22;;;19.00;99.90;;;;;;5012750;28;20087;-67
2023/07/29 00:57:10;;;;;;;7.55;4.03;;;19.00;99.90;;;;;;4995660;28;20032;-67
2023/07/29 00:59:36;;;;;;;4.00;3.45;;;18.90;99.90;;;;;;5012251;28;20037;-67
2023/07/29 01:02:02;;;;;;;4.82;3.22;;;18.90;99.90;;;;;;5012214;28;20022;-68
2023/07/29 01:04:31;;;;;;;4.70;4.15;;;18.90;99.90;;;;;;5002629;28;20095;-67
2023/07/29 01:07:26;;;;;;;9.88;4.88;;;18.90;99.90;;;;;;4998905;28;20413;-68
2023/07/29 01:10:07;;;;;;;4.63;4.22;;;18.90;99.90;;;;;;4997948;28;20405;-67
2023/07/29 01:12:51;;;;;;;5.70;4.13;;;18.80;99.90;;;;;;4990747;28;20100;-68
2023/07/29 01:15:24;;;;;;;5.95;4.40;;;18.80;99.90;;;;;;5007155;28;20267;-68
2023/07/29 01:17:55;;;;;;;4.93;3.97;;;18.80;99.90;;;;;;5014635;28;20105;-68
2023/07/29 01:20:22;;;;;;;7.45;4.78;;;18.70;99.90;;;;;;5016809;28;20040;-68
2023/07/29 01:22:48;;;;;;;9.10;4.80;;;18.80;99.90;;;;;;5007585;28;20040;-67
2023/07/29 01:25:14;;;;;;;6.57;4.57;;;18.70;99.90;;;;;;4994507;28;20386;-67
2023/07/29 01:27:42;;;;;;;4.20;3.80;;;18.70;99.90;;;;;;5005230;28;20096;-68
2023/07/29 01:30:08;;;;;;;4.90;4.50;;;18.70;99.90;;;;;;4995479;28;20412;-68
2023/07/29 01:33:02;;;;;;;5.93;4.20;;;18.60;99.90;;;;;;4995056;28;20137;-68
2023/07/29 01:36:03;;;;;;;4.65;4.25;;;18.70;99.90;;;;;;4994998;28;20073;-68
2023/07/29 01:38:37;;;;;;;4.45;3.90;;;18.70;99.90;;;;;;4993215;28;20034;-68
2023/07/29 01:41:06;;;;;;;5.13;4.50;;;18.70;99.90;;;;;;5004994;28;20424;-68
2023/07/29 01:43:32;;;;;;;3.90;3.60;;;18.70;99.90;;;;;;5011285;28;20026;-68
2023/07/29 01:45:58;;;;;;;5.55;4.70;;;18.60;99.90;;;;;;4989404;28;20026;-67
2023/07/29 01:48:24;;;;;;;4.55;4.15;;;18.60;99.90;;;;;;4996891;28;20103;-68
2023/07/29 01:50:50;;;;;;;5.05;4.55;;;18.60;99.90;;;;;;4990785;28;20034;-67
2023/07/29 01:53:16;;;;;;;5.05;4.45;;;18.60;99.90;;;;;;5004492;28;20030;-67
2023/07/29 01:55:44;;;;;;;5.57;4.78;;;18.60;99.90;;;;;;5020446;28;20124;-67
2023/07/29 01:58:10;;;;;;;7.32;5.55;;;18.60;99.90;;;;;;4998287;28;20053;-67
2023/07/29 02:00:37;;;;;;;6.80;4.97;;;18.60;99.90;;;;;;4998054;28;20030;-68
2023/07/29 02:03:03;;;;;;;4.95;4.45;;;18.60;99.90;;;;;;4989287;28;20083;-68
2023/07/29 02:05:29;;;;;;;5.25;4.68;;;18.60;99.90;;;;;;5006711;28;20088;-68
2023/07/29 02:07:55;;;;;;;6.05;5.40;;;18.50;99.90;;;;;;4995972;28;20108;-67
2023/07/29 02:10:21;;;;;;;7.97;5.30;;;18.50;99.90;;;;;;5018222;28;20655;-67
2023/07/29 02:12:46;;;;;;;11.23;5.18;;;18.50;99.90;;;;;;4997355;28;20513;-67
2023/07/29 02:15:12;;;;;;;5.22;4.72;;;18.60;99.90;;;;;;4998207;28;20509;-68
2023/07/29 02:17:41;;;;;;;5.10;4.53;;;18.50;99.90;;;;;;4990093;28;20035;-68
2023/07/29 02:20:08;;;;;;;5.53;4.70;;;18.50;99.90;;;;;;4984255;28;20037;-68
2023/07/29 02:22:34;;;;;;;13.38;5.03;;;18.50;99.90;;;;;;4983542;28;20037;-68
2023/07/29 02:25:00;;;;;;;6.97;4.85;;;18.50;99.90;;;;;;5016754;28;20021;-68
2023/07/29 02:27:29;;;;;;;4.90;4.38;;;18.50;99.90;;;;;;5015795;28;20035;-68
2023/07/29 02:29:55;;;;;;;4.65;3.92;;;18.40;99.90;;;;;;4996611;28;20061;-68
2023/07/29 02:32:21;;;;;;;4.28;3.83;;;18.40;99.90;;;;;;5015926;28;20672;-67
2023/07/29 02:34:47;;;;;;;6.78;4.78;;;18.40;99.90;;;;;;5014666;28;20033;-67
2023/07/29 02:37:13;;;;;;;4.88;3.88;;;18.40;99.90;;;;;;4992915;28;20033;-67
2023/07/29 02:39:38;;;;;;;7.22;4.78;;;18.40;99.90;;;;;;4997461;28;20023;-68
2023/07/29 02:42:04;;;;;;;5.68;4.18;;;18.40;99.90;;;;;;4978585;28;20084;-68
2023/07/29 02:44:30;;;;;;;6.95;4.13;;;18.30;99.90;;;;;;4997188;28;20030;-67
2023/07/29 02:46:56;;;;;;;3.72;3.42;;;18.30;99.90;;;;;;5001351;28;20030;-67
2023/07/29 02:49:23;;;;;;;4.03;3.70;;;18.30;99.90;;;;;;5003315;28;20036;-68
2023/07/29 02:51:49;;;;;;;4.70;4.25;;;18.30;99.90;;;;;;5005803;28;20038;-67
2023/07/29 02:54:15;;;;;;;7.15;4.13;;;18.30;99.90;;;;;;5016837;28;20040;-68
2023/07/29 02:56:41;;;;;;;6.13;4.28;;;18.40;99.90;;;;;;5018213;28;20037;-67
2023/07/29 02:59:06;;;;;;;5.40;4.60;;;18.40;99.90;;;;;;4997571;28;20049;-68
2023/07/29 03:01:32;;;;;;;4.97;4.47;;;18.40;99.90;;;;;;5007405;28;20706;-67
2023/07/29 03:03:58;;;;;;;7.03;4.93;;;18.40;99.90;;;;;;5000214;28;20034;-68
2023/07/29 03:06:24;;;;;;;6.10;4.65;;;18.40;99.90;;;;;;4999857;28;20034;-68
2023/07/29 03:08:50;;;;;;;5.50;4.68;;;18.40;99.90;;;;;;4999018;28;20144;-67
2023/07/29 03:11:16;;;;;;;5.75;4.53;;;18.40;99.90;;;;;;5000967;28;20104;-67
2023/07/29 03:13:43;;;;;;;6.25;5.28;;;18.50;99.90;;;;;;5002273;28;20048;-67
2023/07/29 03:16:16;;;;;;;6.07;4.70;;;18.40;99.90;;;;;;5001722;28;20038;-67
2023/07/29 03:18:49;;;;;;;5.32;4.20;;;18.40;99.90;;;;;;4999513;28;20032;-67
2023/07/29 03:21:15;;;;;;;8.35;5.35;;;18.30;99.90;;;;;;4997239;28;20404;-68
2023/07/29 03:23:41;;;;;;;7.00;4.70;;;18.40;99.90;;;;;;5005698;28;20044;-67
2023/07/29 03:26:10;;;;;;;7.80;4.60;;;18.40;99.90;;;;;;5000531;28;20026;-67
2023/07/29 03:28:41;;;;;;;5.20;4.70;;;18.30;99.90;;;;;;5000390;28;20123;-68
2023/07/29 03:31:07;;;;;;;5.03;4.55;;;18.30;99.90;;;;;;4989493;28;20037;-67
2023/07/29 03:33:33;;;;;;;7.63;4.88;;;18.30;99.90;;;;;;4980314;28;20464;-68
2023/07/29 03:35:59;;;;;;;5.60;5.03;;;18.30;99.90;;;;;;4999632;28;20029;-68
2023/07/29 03:38:25;;;;;;;5.40;4.38;;;18.30;99.90;;;;;;5018554;28;20038;-67
2023/07/29 03:40:51;;;;;;;5.10;4.60;;;18.30;99.90;;;;;;5004098;28;20044;-68
2023/07/29 03:43:17;;;;;;;5.10;4.43;;;18.30;99.90;;;;;;5006165;28;20029;-68
2023/07/29 03:45:43;;;;;;;4.82;4.07;;;18.30;99.90;;;;;;4988352;28;20092;-68
2023/07/29 03:48:09;;;;;;;5.20;4.70;;;18.30;99.90;;;;;;4986982;28;20033;-67
2023/07/29 03:50:36;;;;;;;5.10;4.60;;;18.40;99.90;;;;;;5000150;28;20722;-67
2023/07/29 03:53:03;;;;;;;6.10;4.90;;;18.40;99.90;;;;;;4993324;28;20045;-67
2023/07/29 03:55:31;;;;;;;4.95;4.45;;;18.40;99.90;;;;;;4996548;28;20092;-67
2023/07/29 03:57:58;;;;;;;4.28;3.88;;;18.50;99.90;;;;;;5017702;28;20026;-68
2023/07/29 04:00:24;;;;;;;7.18;4.65;;;18.50;99.90;;;;;;4999998;28;20114;-67
2023/07/29 04:02:50;;;;;;;5.28;4.78;;;18.60;99.90;;;;;;4999649;28;20556;-68
2023/07/29 04:05:17;;;;;;;4.40;4.00;;;18.60;99.90;;;;;;4999944;28;20107;-67
2023/07/29 04:07:43;;;;;;;5.38;4.88;;;18.60;99.90;;;;;;4987567;28;20034;-67
2023/07/29 04:10:09;;;;;;;5.28;4.35;;;18.70;99.90;;;;;;4996464;28;20032;-68
2023/07/29 04:12:35;;;;;;;6.65;4.60;;;18.70;99.90;;;;;;4992269;28;20038;-68
2023/07/29 04:15:01;;;;;;;6.72;5.97;;;18.80;99.90;;;;;;4999547;28;20116;-68
2023/07/29 04:17:27;;;;;;;6.97;5.28;;;18.70;99.90;;;;;;5012486;28;20030;-68
2023/07/29 04:19:53;;;;;;;5.70;5.05;;;18.80;99.90;;;;;;5004685;28;20038;-68
2023/07/29 04:22:21;;;;;;;5.53;4.60;;;18.80;99.90;;;;;;4995244;28;20104;-68
2023/07/29 04:24:47;;;;;;;7.50;4.80;;;18.80;99.90;;;;;;4997419;28;20030;-67
2023/07/29 04:27:12;;;;;;;5.03;4.53;;;18.90;99.90;;;;;;4994377;28;20228;-68
2023/07/29 04:29:38;;;;;;;5.38;4.88;;;18.90;99.90;;;;;;5014270;28;20064;-68
2023/07/29 04:32:05;;;;;;;4.95;4.40;;;19.00;99.90;;;;;;4991099;28;20060;-68
2023/07/29 04:34:31;;;;;;;5.00;4.50;;;19.00;99.90;;;;;;4996202;28;20120;-68
2023/07/29 04:36:56;;;;;;;6.70;4.40;;;19.00;99.90;;;;;;5004934;28;20136;-68
2023/07/29 04:39:22;;;;;;;4.95;4.30;;;19.10;99.90;;;;;;4999880;28;20075;-68
2023/07/29 04:41:48;;;;;;;5.82;4.65;;;19.10;99.90;;;;;;5002374;28;20104;-68
2023/07/29 04:44:15;;;;;;;5.95;4.20;;;19.20;99.90;;;;;;5000301;28;20760;-68
2023/07/29 04:46:41;;;;;;;5.50;4.88;;;19.20;99.90;;;;;;4992317;28;20037;-68
2023/07/29 04:49:06;;;;;;;5.10;4.53;;;19.20;99.90;;;;;;4999200;28;20409;-67
2023/07/29 04:51:32;;;;;;;4.75;4.25;;;19.20;99.90;;;;;;5013092;28;20033;-67
2023/07/29 04:53:58;;;;;;;6.22;5.63;;;19.20;99.90;;;;;;4996885;28;20033;-68
2023/07/29 04:56:25;;;;;;;6.13;5.35;;;19.30;99.90;;;;;;5005511;28;20080;-67
2023/07/29 04:58:51;;;;;;;6.40;5.43;;;19.30;99.90;;;;;;5014820;28;20117;-67
2023/07/29 05:01:17;;;;;;;5.47;4.95;;;19.40;99.90;;;;;;5017341;28;20030;-67
2023/07/29 05:03:43;;;;;;;6.40;5.25;;;19.50;99.90;;;;;;4995506;28;20042;-68
2023/07/29 05:06:08;;;;;;;7.00;5.32;;;19.60;99.90;;;;;;5016645;28;20104;-68
2023/07/29 05:08:34;;;;;;;6.55;5.85;;;19.60;99.90;;;;;;5020352;28;20076;-67
2023/07/29 05:11:00;;;;;;;6.03;5.22;;;19.70;99.90;;;;;;4995718;28;20088;-68
2023/07/29 05:13:26;;;;;;;6.45;5.80;;;19.70;99.90;;;;;;4996197;28;20090;-68
2023/07/29 05:15:52;;;;;;;5.63;5.03;;;19.80;99.90;;;;;;4990011;28;20038;-68
2023/07/29 05:18:18;;;;;;;8.40;5.32;;;19.80;99.90;;;;;;4994080;28;20430;-68
2023/07/29 05:20:44;;;;;;;8.60;5.60;;;19.90;99.90;;;;;;4997005;28;20029;-67
2023/07/29 05:23:10;;;;;;;5.28;4.78;;;20.00;99.90;;;;;;5002205;28;20032;-68
2023/07/29 05:25:36;;;;;;;7.88;5.57;;;20.10;99.90;;;;;;4998264;28;20034;-69
2023/07/29 05:28:02;;;;;;;5.80;4.47;;;20.20;99.90;;;;;;4997686;28;20029;-68
2023/07/29 05:30:31;;;;;;;8.43;5.03;;;20.20;99.90;;;;;;5012056;28;20529;-68
2023/07/29 05:32:57;;;;;;;5.60;4.88;;;20.30;99.90;;;;;;4989944;28;21388;-68
2023/07/29 05:35:24;;;;;;;5.97;3.88;;;20.20;99.90;;;;;;4997876;28;20045;-68
2023/07/29 05:37:50;;;;;;;5.38;4.50;;;20.30;99.90;;;;;;4996178;28;20030;-68
2023/07/29 05:40:16;;;;;;;4.22;3.78;;;20.40;99.90;;;;;;4992142;28;20038;-68
2023/07/29 05:42:42;;;;;;;4.30;3.90;;;20.40;99.90;;;;;;4996051;28;20053;-68
2023/07/29 05:45:09;;;;;;;7.57;4.03;;;20.50;99.90;;;;;;5010863;28;20424;-67
2023/07/29 05:47:35;;;;;;;4.88;4.10;;;20.50;99.90;;;;;;4993371;28;20076;-68
2023/07/29 05:50:04;;;;;;;4.95;4.38;;;20.60;99.90;;;;;;5015338;28;20029;-67
2023/07/29 05:52:34;;;;;;;4.95;4.15;;;20.50;99.90;;;;;;4992820;28;20037;-67
2023/07/29 05:55:00;;;;;;;5.50;3.25;;;20.50;99.90;;;;;;4994418;28;20492;-68
2023/07/29 05:57:25;;;;;;;4.20;3.65;;;20.60;99.90;;;;;;4992074;28;20045;-68
2023/07/29 05:59:51;;;;;;;4.85;4.22;;;20.60;99.90;;;;;;5009183;28;20143;-67
2023/07/29 06:02:17;;;;;;;4.57;3.95;;;20.60;99.90;;;;;;4989260;28;20087;-68
2023/07/29 06:04:44;;;;;;;6.60;3.63;;;20.70;99.90;;;;;;4994160;28;20103;-67
2023/07/29 06:07:10;;;;;;;4.78;4.32;;;20.70;99.90;;;;;;5009121;28;20525;-68
2023/07/29 06:09:36;;;;;;;4.20;3.80;;;20.80;99.90;;;;;;4981954;28;20041;-68
2023/07/29 06:12:02;;;;;;;4.75;3.60;;;20.80;99.90;;;;;;4993947;28;20036;-68
2023/07/29 06:14:28;;;;;;;5.05;4.10;;;20.80;99.90;;;;;;5005710;28;20405;-67
2023/07/29 06:16:53;;;;;;;7.20;4.68;;;20.80;99.90;;;;;;5013397;28;20042;-68
2023/07/29 06:19:20;;;;;;;3.97;3.60;;;20.90;99.90;;;;;;5017251;28;20033;-68
2023/07/29 06:21:46;;;;;;;4.70;3.60;;;21.00;99.90;;;;;;4980620;28;20065;-68
2023/07/29 06:24:12;;;;;;;3.70;3.33;;;21.00;99.90;;;;;;4998711;28;20072;-67
2023/07/29 06:26:37;;;;;;;4.50;3.85;;;21.00;99.90;;;;;;5017101;28;20038;-68
2023/07/29 06:29:03;;;;;;;4.32;3.92;;;21.10;99.90;;;;;;5021185;28;20041;-67
2023/07/29 06:31:29;;;;;;;4.00;3.60;;;21.20;99.90;;;;;;5013961;28;20048;-68
2023/07/29 06:33:55;;;;;;;6.20;4.30;;;21.30;99.90;;;;;;5011290;28;20029;-68
2023/07/29 06:36:21;;;;;;;3.67;3.38;;;21.40;99.90;;;;;;5020614;28;20045;-68
2023/07/29 06:38:47;;;;;;;4.00;3.60;;;21.50;99.90;;;;;;5023591;28;20115;-68
2023/07/29 06:41:13;;;;;;;4.03;3.40;;;21.60;99.90;;;;;;5002434;28;20041;-68
2023/07/29 06:43:39;;;;;;;5.18;3.78;;;21.60;99.90;;;;;;5019037;28;20528;-66
2023/07/29 06:46:05;;;;;;;3.35;3.05;;;21.70;99.90;;;;;;5010282;28;20043;-67
2023/07/29 06:48:30;;;;;;;3.47;3.17;;;21.90;99.90;;;;;;5008541;28;20037;-66
2023/07/29 06:51:00;;;;;;;3.80;3.40;;;22.00;99.90;;;;;;5007981;28;20707;-67
2023/07/29 06:53:26;;;;;;;3.28;2.70;;;22.00;99.90;;;;;;5014584;28;20041;-67
2023/07/29 06:55:52;;;;;;;2.80;2.50;;;22.10;99.90;;;;;;5016190;28;20041;-67
2023/07/29 06:58:18;;;;;;;2.97;2.72;;;22.10;99.90;;;;;;5004262;28;20163;-66
2023/07/29 07:00:44;;;;;;;3.20;2.90;;;22.20;99.90;;;;;;5007151;28;20081;-66
2023/07/29 07:03:10;;;;;;;2.72;2.53;;;22.20;99.90;;;;;;4993554;28;20052;-67
2023/07/29 07:05:35;;;;;;;3.10;2.88;;;22.30;99.90;;;;;;5014705;28;20042;-67
2023/07/29 07:08:01;;;;;;;2.60;2.40;;;22.40;99.90;;;;;;5010563;28;20034;-67
2023/07/29 07:10:27;;;;;;;6.07;2.53;;;22.40;99.90;;;;;;5011739;28;20125;-67
2023/07/29 07:12:53;;;;;;;4.93;3.08;;;22.50;99.90;;;;;;5010030;28;20033;-67
2023/07/29 07:15:18;;;;;;;3.17;2.80;;;22.60;99.90;;;;;;5020194;28;20041;-67
2023/07/29 07:17:44;;;;;;;3.42;2.65;;;22.60;99.90;;;;;;5017101;28;20041;-67
2023/07/29 07:20:11;;;;;;;4.88;3.10;;;22.70;99.90;;;;;;5014186;28;20037;-67
2023/07/29 07:22:37;;;;;;;3.60;2.95;;;22.80;99.90;;;;;;5008470;28;20044;-67
2023/07/29 07:25:03;;;;;;;3.35;3.05;;;22.80;99.90;;;;;;5005826;28;20038;-67
2023/07/29 07:27:29;;;;;;;5.18;2.67;;;22.90;99.90;;;;;;5009605;28;20512;-67
2023/07/29 07:29:54;;;;;;;2.88;2.67;;;22.90;99.90;;;;;;5014161;28;20192;-66
2023/07/29 07:32:20;;;;;;;2.70;2.50;;;23.00;99.90;;;;;;4997342;28;20050;-67
2023/07/29 07:34:46;;;;;;;3.78;3.20;;;23.00;99.90;;;;;;5009114;28;20057;-67
2023/07/29 07:37:12;;;;;;;3.20;2.40;;;23.10;99.90;;;;;;5003505;28;20034;-67
2023/07/29 07:39:37;;;;;;;2.67;2.33;;;23.20;99.90;;;;;;5005786;28;20526;-67
2023/07/29 07:42:04;;;;;;;5.75;2.35;;;23.30;99.90;;;;;;5014132;28;20112;-67
2023/07/29 07:44:29;;;;;;;2.50;2.28;;;23.40;99.90;;;;;;5013738;28;20029;-67
2023/07/29 07:46:55;;;;;;;2.20;2.08;;;23.40;99.90;;;;;;4994833;28;20717;-67
2023/07/29 07:49:21;;;;;;;5.63;2.17;;;23.40;99.90;;;;;;5000876;28;20029;-67
2023/07/29 07:51:47;;;;;;;2.60;1.95;;;23.50;99.90;;;;;;5016630;28;20047;-67
2023/07/29 07:54:13;;;;;;;2.00;1.80;;;23.50;99.90;;;;;;5010665;28;20490;-67
2023/07/29 07:56:39;;;;;;;3.45;1.70;;;23.50;99.90;;;;;;5009666;28;20120;-67
2023/07/29 07:59:04;;;;;;;2.58;2.05;;;23.50;99.90;;;;;;5019289;28;20083;-66
2023/07/29 08:01:37;;;;;;;1.95;1.75;;;23.60;99.90;;;;;;5013646;28;20057;-66
2023/07/29 08:04:03;;;;;;;2.17;1.80;;;23.60;99.90;;;;;;5001248;28;20083;-67
2023/07/29 08:06:30;;;;;;;2.10;1.70;;;23.60;99.90;;;;;;5009545;28;20029;-66
2023/07/29 08:08:56;;;;;;;4.55;2.00;;;23.70;99.90;;;;;;5011661;28;20145;-67
2023/07/29 08:11:22;;;;;;;1.88;1.77;;;23.80;99.90;;;;;;5000844;28;20112;-67
2023/07/29 08:13:48;;;;;;;2.20;2.00;;;23.90;99.90;;;;;;5017477;28;20797;-67
2023/07/29 08:16:14;;;;;;;2.88;1.98;;;23.80;99.90;;;;;;5008031;28;20053;-66
2023/07/29 08:18:40;;;;;;;1.95;1.85;;;23.80;99.90;;;;;;5011404;28;20031;-66
2023/07/29 08:21:06;;;;;;;2.10;1.80;;;23.90;99.90;;;;;;4998835;28;20048;-67
2023/07/29 08:23:33;;;;;;;1.70;1.60;;;24.00;99.90;;;;;;5020518;28;20131;-67
2023/07/29 08:26:01;;;;;;;3.08;1.85;;;24.10;99.90;;;;;;5007907;28;20030;-67
2023/07/29 08:28:28;;;;;;;2.13;1.90;;;24.30;99.90;;;;;;5007693;28;20530;-67
2023/07/29 08:30:54;;;;;;;1.85;1.70;;;24.30;99.90;;;;;;5012734;28;20413;-67
2023/07/29 08:33:20;;;;;;;2.17;1.90;;;24.30;99.90;;;;;;4997860;28;20036;-66
2023/07/29 08:35:46;;;;;;;1.88;1.77;;;24.20;99.90;;;;;;5009417;28;20716;-67
2023/07/29 08:38:12;;;;;;;2.78;1.90;;;24.30;99.90;;;;;;5006041;28;20110;-67
2023/07/29 08:41:03;;;;;;;2.60;1.90;;;24.20;99.90;;;;;;5014290;28;20025;-64
2023/07/29 08:43:31;;;;;;;2.53;2.08;;;24.20;99.90;;;;;;4987799;28;20041;-67
2023/07/29 08:45:58;;;;;;;3.13;1.90;;;24.20;99.90;;;;;;5005819;28;20057;-66
2023/07/29 08:48:42;;;;;;;1.90;1.80;;;24.10;99.90;;;;;;5013818;28;20045;-67
2023/07/29 08:51:11;;;;;;;2.20;2.00;;;24.10;99.90;;;;;;5004557;28;20033;-67
2023/07/29 08:53:38;;;;;;;2.45;1.80;;;24.10;99.90;;;;;;5000732;28;20052;-67
2023/07/29 08:56:05;;;;;;;2.10;1.90;;;24.10;99.90;;;;;;5008372;28;20040;-66
2023/07/29 08:58:32;;;;;;;1.95;1.83;;;24.20;99.90;;;;;;5013390;28;20040;-67
2023/07/29 09:00:58;;;;;;;2.05;1.88;;;24.20;99.90;;;;;;5005800;28;20079;-69
2023/07/29 09:03:24;;;;;;;2.92;1.98;;;24.30;99.90;;;;;;5005290;28;20112;-69
2023/07/29 09:05:51;;;;;;;2.28;2.08;;;24.40;99.90;;;;;;4993079;28;20553;-69
2023/07/29 09:08:17;;;;;;;6.50;1.80;;;24.50;99.90;;;;;;4997385;28;20835;-69
2023/07/29 09:10:43;;;;;;;2.95;2.10;;;24.40;99.90;;;;;;5006400;28;20038;-69
2023/07/29 09:13:09;;;;;;;2.92;2.00;;;24.40;99.90;;;;;;5003906;28;20048;-70
2023/07/29 09:15:36;;;;;;;2.42;1.90;;;24.30;99.90;;;;;;5013614;28;20077;-66
2023/07/29 09:18:19;;;;;;;2.88;2.10;;;24.40;99.90;;;;;;5007419;28;20385;-67
2023/07/29 09:20:49;;;;;;;1.80;1.65;;;24.60;99.90;;;;;;5004826;28;20137;-66
2023/07/29 09:23:15;;;;;;;2.45;1.95;;;24.70;99.90;;;;;;5009169;28;20036;-68
2023/07/29 09:25:42;;;;;;;1.80;1.70;;;24.90;99.90;;;;;;5011426;28;20075;-67
2023/07/29 09:28:15;;;;;;;2.20;1.60;;;24.90;99.90;;;;;;5013870;28;20770;-69
2023/07/29 09:30:45;;;;;;;1.50;1.40;;;24.80;99.90;;;;;;4997628;28;20045;-67
2023/07/29 09:33:11;;;;;;;6.32;2.40;;;24.80;99.90;;;;;;5006301;28;20643;-66
2023/07/29 09:35:38;;;;;;;1.85;1.75;;;24.90;99.90;;;;;;5003172;28;20121;-68
2023/07/29 09:38:05;;;;;;;2.20;1.92;;;25.10;99.90;;;;;;5008207;28;20403;-67
2023/07/29 09:40:39;;;;;;;3.63;2.25;;;25.20;99.90;;;;;;5008194;28;20498;-67
2023/07/29 09:43:06;;;;;;;3.15;1.70;;;25.20;99.90;;;;;;5011302;28;20030;-67
2023/07/29 09:45:35;;;;;;;2.15;1.77;;;25.00;99.90;;;;;;5012150;28;20456;-67
2023/07/29 09:48:01;;;;;;;2.00;1.90;;;25.00;99.90;;;;;;5009286;28;20041;-67
2023/07/29 09:50:27;;;;;;;2.20;1.90;;;25.00;99.90;;;;;;5011253;28;20034;-66
2023/07/29 09:52:55;;;;;;;2.63;2.42;;;25.00;99.90;;;;;;5018108;28;20041;-66
2023/07/29 09:55:26;;;;;;;2.35;1.80;;;25.00;99.90;;;;;;5008055;28;20046;-67
2023/07/29 09:58:03;;;;;;;2.35;1.77;;;24.80;99.90;;;;;;5009504;28;20037;-67
2023/07/29 10:00:30;;;;;;;2.08;1.90;;;24.80;99.90;;;;;;4997672;28;20489;-67
2023/07/29 10:02:58;;;;;;;3.67;1.75;;;24.80;99.90;;;;;;5002170;28;20030;-67
2023/07/29 10:05:28;;;;;;;2.22;1.98;;;24.90;99.90;;;;;;5012433;28;20094;-67
2023/07/29 10:07:55;;;;;;;2.40;1.98;;;25.00;99.90;;;;;;5015188;28;20163;-66
2023/07/29 10:10:21;;;;;;;1.63;1.50;;;25.10;99.90;;;;;;5014871;28;20040;-67
2023/07/29 10:12:47;;;;;;;5.40;2.10;;;25.00;99.90;;;;;;5018993;28;20497;-66
2023/07/29 10:15:14;;;;;;;2.45;2.22;;;24.90;99.90;;;;;;4997267;28;20130;-66
2023/07/29 10:17:40;;;;;;;1.92;1.80;;;24.80;99.90;;;;;;5013888;28;20030;-67
2023/07/29 10:20:07;;;;;;;3.05;1.73;;;25.00;99.90;;;;;;4994434;28;20037;-67
2023/07/29 10:22:38;;;;;;;1.85;1.75;;;25.00;99.90;;;;;;5010299;28;20076;-66
2023/07/29 10:25:08;;;;;;;1.67;1.58;;;25.20;99.90;;;;;;5005600;28;20079;-67
2023/07/29 10:27:43;;;;;;;1.60;1.50;;;25.20;99.90;;;;;;5001892;28;20049;-66
2023/07/29 10:30:13;;;;;;;2.05;1.38;;;25.30;99.90;;;;;;5005420;28;20033;-66
2023/07/29 10:32:44;;;;;;;2.03;1.80;;;25.20;99.90;;;;;;5017389;28;20029;-67
2023/07/29 10:35:13;;;;;;;8.25;1.98;;;25.10;99.90;;;;;;5012178;28;20144;-67
2023/07/29 10:37:40;;;;;;;10.02;2.78;;;25.00;99.90;;;;;;5013208;28;20026;-68
2023/07/29 10:40:07;;;;;;;2.83;2.20;;;24.80;99.90;;;;;;5008587;28;20126;-68
2023/07/29 10:42:33;;;;;;;6.03;2.88;;;24.30;99.90;;;;;;5010015;28;20126;-66
2023/07/29 10:44:58;;;;;;;5.53;2.40;;;23.90;99.90;;;;;;5015322;28;20120;-66
2023/07/29 10:47:27;;;;;;;2.90;2.15;;;23.60;99.90;;;;;;5006855;28;20065;-66
2023/07/29 10:49:57;;;;;;;3.45;1.85;;;23.40;99.90;;;;;;4999810;28;20386;-66
2023/07/29 10:52:35;;;;;;;4.07;1.52;;;23.30;99.90;;;;;;5008157;28;20091;-67
2023/07/29 10:55:03;;;;;;;2.15;1.70;;;23.30;99.90;;;;;;5012691;28;20029;-66
2023/07/29 10:57:33;;;;;;;2.08;1.60;;;23.30;99.90;;;;;;5005153;28;20121;-66
2023/07/29 10:59:59;;;;;;;3.65;1.95;;;23.30;99.90;;;;;;5011478;28;20049;-66
2023/07/29 11:03:00;;;;;;;1.77;1.63;;;23.20;99.90;;;;;;5011731;28;20689;-66
2023/07/29 11:05:26;;;;;;;1.92;1.50;;;23.20;99.90;;;;;;5003261;28;20127;-66
2023/07/29 11:07:52;;;;;;;1.92;1.58;;;23.20;99.90;;;;;;5013265;28;20065;-66
2023/07/29 11:10:18;;;;;;;1.40;1.30;;;23.10;99.90;;;;;;5013696;28;20508;-65
2023/07/29 11:12:51;;;;;;;1.48;1.38;;;23.10;99.90;;;;;;4998402;28;20145;-66
2023/07/29 11:15:24;;;;;;;2.38;1.25;;;23.00;99.90;;;;;;5004586;28;20038;-66
2023/07/29 11:17:55;;;;;;;2.50;1.30;;;23.00;99.90;;;;;;5006462;28;20054;-67
2023/07/29 11:20:23;;;;;;;2.08;1.30;;;22.90;99.90;;;;;;5012480;28;20029;-67
2023/07/29 11:22:49;;;;;;;2.55;1.58;;;22.90;99.90;;;;;;5016284;28;20397;-66
2023/07/29 11:25:17;;;;;;;1.85;1.38;;;22.80;99.90;;;;;;5011744;28;20026;-66
2023/07/29 11:27:43;;;;;;;2.20;1.38;;;22.80;99.90;;;;;;5008226;28;20085;-66
2023/07/29 11:30:10;;;;;;;2.42;1.60;;;22.70;99.90;;;;;;5000535;28;20054;-66
2023/07/29 11:32:38;;;;;;;1.90;1.42;;;22.70;99.90;;;;;;5005027;28;20065;-66
2023/07/29 11:35:09;;;;;;;2.45;1.60;;;22.60;99.90;;;;;;4998549;28;20486;-66
2023/07/29 11:37:37;;;;;;;1.92;1.48;;;22.60;99.90;;;;;;5001738;28;20117;-66
2023/07/29 11:40:04;;;;;;;3.13;1.67;;;22.60;99.90;;;;;;4992321;28;20037;-67
2023/07/29 11:42:33;;;;;;;2.20;1.23;;;22.60;99.90;;;;;;5003437;28;20121;-66
2023/07/29 11:45:00;;;;;;;1.98;1.75;;;22.60;99.90;;;;;;5017221;28;20397;-66
2023/07/29 11:47:26;;;;;;;2.22;1.50;;;22.60;99.90;;;;;;5010677;28;20042;-67
2023/07/29 11:49:52;;;;;;;3.22;1.73;;;22.50;99.90;;;;;;5010213;28;20026;-67
2023/07/29 11:52:19;;;;;;;1.80;1.70;;;22.50;99.90;;;;;;5005280;28;20034;-67
2023/07/29 11:54:49;;;;;;;2.80;1.92;;;22.50;99.90;;;;;;5009755;28;20065;-66
2023/07/29 11:57:16;;;;;;;3.83;2.13;;;22.50;99.90;;;;;;5013846;28;20034;-66
2023/07/29 11:59:42;;;;;;;3.10;2.22;;;22.50;99.90;;;;;;5015714;28;20038;-66
2023/07/29 12:02:14;;;;;;;3.83;2.42;;;22.60;99.90;;;;;;5011195;28;20044;-67
2023/07/29 12:04:41;;;;;;;4.00;2.40;;;22.60;99.90;;;;;;5008260;28;20679;-66
2023/07/29 12:07:07;;;;;;;3.40;2.58;;;22.60;99.90;;;;;;5008241;28;20037;-67
2023/07/29 12:09:35;;;;;;;6.90;2.97;;;22.70;99.90;;;;;;5003363;28;20053;-66
2023/07/29 12:12:05;;;;;;;2.20;2.00;;;22.80;99.90;;;;;;5004250;28;20033;-66
2023/07/29 12:14:31;;;;;;;3.05;2.75;;;23.00;99.90;;;;;;5004401;28;20037;-65
2023/07/29 12:17:05;;;;;;;3.03;2.72;;;23.10;99.90;;;;;;5004823;28;20053;-66
2023/07/29 12:19:36;;;;;;;2.58;2.38;;;23.10;99.90;;;;;;5002297;28;20057;-66
2023/07/29 12:22:07;;;;;;;2.35;2.15;;;23.10;99.90;;;;;;5003725;28;20029;-67
2023/07/29 12:24:35;;;;;;;2.30;2.13;;;23.30;99.90;;;;;;4997345;28;20041;-66
2023/07/29 12:27:01;;;;;;;2.78;1.90;;;23.30;99.90;;;;;;5010792;28;20424;-66
2023/07/29 12:29:28;;;;;;;3.55;2.90;;;23.50;99.90;;;;;;5003891;28;20080;-66
2023/07/29 12:32:02;;;;;;;2.60;2.40;;;23.70;99.90;;;;;;5017278;28;20454;-66
2023/07/29 12:34:28;;;;;;;2.35;1.95;;;23.80;99.90;;;;;;5005724;28;20057;-67
2023/07/29 12:36:56;;;;;;;3.17;2.55;;;23.90;99.90;;;;;;5009363;28;20064;-66
2023/07/29 12:39:35;;;;;;;3.80;2.13;;;24.00;99.90;;;;;;5011319;28;20589;-66
2023/07/29 12:42:03;;;;;;;2.20;2.00;;;24.10;99.90;;;;;;4995343;28;20048;-66
2023/07/29 12:44:34;;;;;;;2.10;1.90;;;24.10;99.90;;;;;;5005694;28;20687;-66
2023/07/29 12:47:04;;;;;;;1.20;1.10;;;24.10;99.90;;;;;;5011577;28;20047;-66